Time;durP1;ratioP1;P1;durP2;ratioP2;P2;SDS_P1;SDS_P2;PMS_P1;PMS_P2;Temp;Humidity;BMP_temperature;BMP_pressure;BME280_temperature;BME280_humidity;BME280_pressure;Samples;Min_cycle;Max_cycle;Signal;HPM_P1;HPM_P2
2021/05/28 00:00:11;;;;;;;8.08;6.10;;;;;;;12.26;73.26;97241.77;1788270;79;26385;-85
2021/05/28 00:02:39;;;;;;;9.53;6.35;;;;;;;12.25;73.35;97235.23;1769932;79;25955;-85
2021/05/28 00:05:07;;;;;;;8.13;5.90;;;;;;;12.24;73.39;97237.63;1791499;79;26357;-85
2021/05/28 00:07:34;;;;;;;6.87;5.55;;;;;;;12.25;73.39;97235.23;1778286;79;25615;-85
2021/05/28 00:10:00;;;;;;;11.10;5.70;;;;;;;12.26;73.39;97236.88;1780259;79;25631;-84
2021/05/28 00:12:27;;;;;;;8.03;5.90;;;;;;;12.25;73.45;97234.70;1766240;79;25651;-85
2021/05/28 00:14:54;;;;;;;8.03;6.00;;;;;;;12.24;73.48;97233.05;1785226;79;27508;-85
2021/05/28 00:17:20;;;;;;;9.53;6.15;;;;;;;12.23;73.45;97236.80;1794749;79;25680;-85
2021/05/28 00:19:47;;;;;;;7.67;6.20;;;;;;;12.21;73.49;97238.08;1791728;79;25676;-85
2021/05/28 00:22:13;;;;;;;8.03;6.35;;;;;;;12.18;73.55;97238.55;1761357;79;25773;-85
2021/05/28 00:24:40;;;;;;;8.78;5.87;;;;;;;12.16;73.65;97233.36;1768963;79;25584;-85
2021/05/28 00:27:07;;;;;;;12.75;6.47;;;;;;;12.11;73.64;97237.78;1768637;79;28225;-85
2021/05/28 00:29:33;;;;;;;7.78;5.75;;;;;;;12.10;73.73;97238.83;1775367;79;25763;-85
2021/05/28 00:32:03;;;;;;;8.48;6.22;;;;;;;12.04;73.83;97234.33;1772162;79;25624;-84
2021/05/28 00:34:29;;;;;;;8.98;6.05;;;;;;;12.01;73.92;97226.13;1764431;79;25711;-85
2021/05/28 00:36:56;;;;;;;9.10;5.58;;;;;;;12.02;74.00;97229.67;1790692;79;25648;-84
2021/05/28 00:39:22;;;;;;;8.50;6.00;;;;;;;12.02;74.00;97231.02;1772187;79;27427;-84
2021/05/28 00:41:49;;;;;;;6.50;5.72;;;;;;;12.02;74.07;97226.44;1773205;78;25645;-85
2021/05/28 00:44:23;;;;;;;9.15;6.15;;;;;;;12.01;74.05;97230.19;1761864;79;25739;-85
2021/05/28 00:46:49;;;;;;;8.55;5.95;;;;;;;12.02;74.05;97230.49;1764669;79;26242;-86
2021/05/28 00:49:16;;;;;;;8.65;5.90;;;;;;;12.01;74.10;97230.72;1769479;79;25690;-84
2021/05/28 00:51:43;;;;;;;7.55;5.58;;;;;;;12.00;74.06;97230.41;1759117;79;27473;-84
2021/05/28 00:54:11;;;;;;;10.82;5.80;;;;;;;11.99;74.11;97232.81;1768851;79;25703;-85
2021/05/28 00:56:42;;;;;;;7.28;5.65;;;;;;;11.98;74.17;97231.16;1763813;79;25654;-84
2021/05/28 00:59:10;;;;;;;8.95;5.92;;;;;;;11.98;74.16;97236.04;1761912;79;25733;-84
2021/05/28 01:01:36;;;;;;;6.55;5.30;;;;;;;12.00;74.20;97237.17;1760234;79;25808;-85
2021/05/28 01:04:04;;;;;;;9.98;5.55;;;;;;;11.96;74.21;97238.14;1759708;79;27465;-85
2021/05/28 01:06:30;;;;;;;8.50;5.87;;;;;;;11.94;74.28;97238.09;1759893;79;25675;-85
2021/05/28 01:08:57;;;;;;;8.90;5.65;;;;;;;11.91;74.30;97238.00;1782225;79;25597;-83
2021/05/28 01:11:24;;;;;;;5.72;5.17;;;;;;;11.90;74.42;97237.70;1790078;79;26304;-83
2021/05/28 01:13:51;;;;;;;8.23;5.33;;;;;;;11.78;74.42;97232.20;1768834;79;25686;-84
2021/05/28 01:16:18;;;;;;;9.03;5.70;;;;;;;11.76;74.55;97232.94;1761933;79;27405;-85
2021/05/28 01:18:46;;;;;;;9.73;5.42;;;;;;;11.77;74.64;97242.71;1761695;79;25609;-85
2021/05/28 01:21:13;;;;;;;10.78;5.97;;;;;;;11.80;74.75;97238.22;1760329;79;25559;-85
2021/05/28 01:23:40;;;;;;;8.03;5.83;;;;;;;11.75;74.70;97247.51;1764634;79;25860;-85
2021/05/28 01:26:07;;;;;;;10.00;6.05;;;;;;;11.74;74.70;97240.41;1764131;79;25669;-85
2021/05/28 01:28:34;;;;;;;8.80;5.60;;;;;;;11.79;74.79;97246.02;1756781;79;27367;-84
2021/05/28 01:31:01;;;;;;;8.70;5.75;;;;;;;11.75;74.80;97252.05;1757264;80;25832;-85
2021/05/28 01:33:28;;;;;;;10.53;5.72;;;;;;;11.70;74.78;97250.04;1776395;79;25626;-86
2021/05/28 01:35:58;;;;;;;7.33;6.10;;;;;;;11.68;74.84;97254.01;1768641;79;26344;-86
2021/05/28 01:38:26;;;;;;;7.62;5.72;;;;;;;11.70;74.90;97255.45;1778579;79;25528;-84
2021/05/28 01:40:53;;;;;;;6.97;5.75;;;;;;;11.69;74.87;97259.20;1779747;79;27412;-85
2021/05/28 01:43:20;;;;;;;9.78;6.17;;;;;;;11.71;74.79;97261.12;1772825;79;25772;-84
2021/05/28 01:45:47;;;;;;;10.78;6.25;;;;;;;11.76;74.76;97264.03;1768496;79;25486;-85
2021/05/28 01:48:13;;;;;;;12.93;6.03;;;;;;;11.75;74.72;97262.38;1796655;78;26130;-84
2021/05/28 01:50:43;;;;;;;9.13;5.95;;;;;;;11.70;74.74;97268.14;1790797;79;25678;-84
2021/05/28 01:53:17;;;;;;;11.15;6.00;;;;;;;11.63;74.71;97269.53;1795908;79;27317;-84
2021/05/28 01:55:45;;;;;;;10.03;6.58;;;;;;;11.58;74.78;97262.63;1790547;79;25790;-84
2021/05/28 01:58:15;;;;;;;10.18;6.75;;;;;;;11.54;74.87;97266.80;1803905;79;26066;-85
2021/05/28 02:00:42;;;;;;;10.08;6.87;;;;;;;11.55;75.02;97268.47;1798812;79;25647;-84
2021/05/28 02:03:09;;;;;;;10.25;6.33;;;;;;;11.56;75.02;97263.36;1761092;79;25666;-84
2021/05/28 02:05:36;;;;;;;8.70;6.47;;;;;;;11.58;75.08;97264.50;1781217;79;27150;-84
2021/05/28 02:08:05;;;;;;;8.95;6.58;;;;;;;11.51;75.05;97268.59;1793016;79;25638;-84
2021/05/28 02:10:32;;;;;;;11.22;6.50;;;;;;;11.52;75.17;97266.20;1793498;79;25610;-84
2021/05/28 02:12:59;;;;;;;7.28;5.72;;;;;;;11.47;75.17;97270.90;1791911;79;26450;-83
2021/05/28 02:15:28;;;;;;;9.58;6.03;;;;;;;11.47;75.17;97289.02;1785625;78;26134;-83
2021/05/28 02:17:55;;;;;;;8.38;6.03;;;;;;;11.48;75.29;97290.13;1762360;79;28241;-84
2021/05/28 02:20:23;;;;;;;10.50;6.95;;;;;;;11.49;75.29;97293.66;1763741;79;25693;-84
2021/05/28 02:22:50;;;;;;;7.67;6.22;;;;;;;11.51;75.36;97291.56;1778110;79;25685;-83
2021/05/28 02:25:17;;;;;;;10.03;6.47;;;;;;;11.55;75.36;97295.50;1767294;79;26339;-84
2021/05/28 02:27:44;;;;;;;9.43;7.03;;;;;;;11.47;75.29;97287.67;1772480;79;25778;-83
2021/05/28 02:30:14;;;;;;;13.28;7.33;;;;;;;11.45;75.32;97291.11;1778999;79;27917;-83
2021/05/28 02:32:41;;;;;;;10.23;6.62;;;;;;;11.46;75.42;97290.89;1761766;79;25580;-83
2021/05/28 02:35:11;;;;;;;10.68;6.50;;;;;;;11.44;75.44;97288.93;1768459;79;25199;-84
2021/05/28 02:37:38;;;;;;;10.60;6.40;;;;;;;11.47;75.53;97297.13;1771945;79;25702;-84
2021/05/28 02:40:07;;;;;;;12.75;6.33;;;;;;;11.46;75.53;97297.66;1761758;79;26360;-85
2021/05/28 02:42:34;;;;;;;7.37;5.92;;;;;;;11.47;75.50;97303.89;1769933;79;28090;-86
2021/05/28 02:45:01;;;;;;;8.45;6.50;;;;;;;11.49;75.42;97303.12;1770806;79;25636;-83
2021/05/28 02:47:28;;;;;;;10.53;6.08;;;;;;;11.41;75.43;97301.52;1767040;79;26388;-83
2021/05/28 02:49:55;;;;;;;8.70;6.28;;;;;;;11.40;75.35;97311.20;1795563;79;25653;-83
2021/05/28 02:52:22;;;;;;;8.40;5.72;;;;;;;11.42;75.43;97318.05;1789637;78;25610;-83
2021/05/28 02:54:49;;;;;;;8.30;6.20;;;;;;;11.41;75.50;97320.97;1794391;79;27361;-84
2021/05/28 02:57:16;;;;;;;10.32;6.35;;;;;;;11.41;75.48;97315.56;1792349;79;25583;-84
2021/05/28 02:59:43;;;;;;;9.20;6.55;;;;;;;11.41;75.46;97316.39;1803469;78;25669;-83
2021/05/28 03:02:09;;;;;;;10.70;6.37;;;;;;;11.41;75.48;97311.50;1792664;79;26493;-83
2021/05/28 03:04:37;;;;;;;9.93;6.62;;;;;;;11.41;75.46;97314.20;1796387;78;25689;-84
2021/05/28 03:07:04;;;;;;;14.43;6.45;;;;;;;11.41;75.46;97318.26;1781620;78;26888;-85
2021/05/28 03:09:30;;;;;;;9.80;7.25;;;;;;;11.42;75.49;97326.16;1768721;79;25575;-85
2021/05/28 03:11:57;;;;;;;8.08;6.33;;;;;;;11.39;75.51;97323.88;1796514;79;25572;-84
2021/05/28 03:14:23;;;;;;;8.08;6.97;;;;;;;11.37;75.52;97323.78;1803611;79;25659;-85
2021/05/28 03:16:50;;;;;;;9.70;6.83;;;;;;;11.35;75.56;97321.85;1793005;78;25657;-84
2021/05/28 03:19:24;;;;;;;11.78;6.28;;;;;;;11.34;75.56;97324.25;1797842;78;28114;-84
2021/05/28 03:24:36;;;;;;;11.88;6.97;;;;;;;11.37;75.57;97326.48;1771969;79;25623;-84
2021/05/28 03:27:03;;;;;;;9.38;6.72;;;;;;;11.33;75.58;97321.23;1778844;79;25869;-84
2021/05/28 03:29:29;;;;;;;11.48;6.60;;;;;;;11.33;75.67;97329.34;1766421;79;25643;-83
2021/05/28 03:31:56;;;;;;;9.73;6.70;;;;;;;11.36;75.70;97335.64;1797756;79;28358;-84
2021/05/28 03:34:23;;;;;;;16.48;6.70;;;;;;;11.40;75.70;97334.17;1796949;79;25554;-84
2021/05/28 03:36:50;;;;;;;9.53;6.35;;;;;;;11.34;75.63;97342.64;1768297;79;25688;-83
2021/05/28 03:39:17;;;;;;;11.03;7.53;;;;;;;11.30;75.65;97341.41;1785627;79;25893;-84
2021/05/28 03:41:43;;;;;;;8.28;6.00;;;;;;;11.29;75.72;97344.33;1770508;79;25635;-83
2021/05/28 03:44:10;;;;;;;10.75;7.97;;;;;;;11.28;75.77;97346.72;1780226;79;27441;-84
2021/05/28 03:46:36;;;;;;;9.50;6.42;;;;;;;11.28;75.83;97339.44;1785931;79;25662;-82
2021/05/28 03:49:03;;;;;;;11.78;7.20;;;;;;;11.30;75.80;97335.17;1793772;79;25609;-83
2021/05/28 03:51:30;;;;;;;9.45;7.30;;;;;;;11.30;75.78;97337.88;1795951;78;26264;-82
2021/05/28 03:53:56;;;;;;;8.33;6.87;;;;;;;11.31;75.86;97332.78;1787791;79;25642;-83
2021/05/28 03:56:23;;;;;;;10.15;7.42;;;;;;;11.32;75.86;97335.80;1786311;79;27422;-83
2021/05/28 03:58:50;;;;;;;11.25;7.58;;;;;;;11.34;75.86;97332.35;1785222;79;25603;-82
2021/05/28 04:01:16;;;;;;;10.82;6.85;;;;;;;11.38;75.87;97329.50;1761504;78;25614;-83
2021/05/28 04:03:43;;;;;;;8.45;6.97;;;;;;;11.39;75.86;97328.45;1779078;78;25609;-83
2021/05/28 04:06:09;;;;;;;10.82;6.95;;;;;;;11.41;75.80;97334.48;1781495;79;25677;-84
2021/05/28 04:08:36;;;;;;;10.72;7.40;;;;;;;11.43;75.69;97335.09;1789773;78;27364;-83
2021/05/28 04:11:02;;;;;;;8.80;7.10;;;;;;;11.42;75.65;97336.13;1792713;79;25820;-83
2021/05/28 04:13:32;;;;;;;9.43;7.30;;;;;;;11.42;75.57;97341.54;1761359;79;25661;-83
2021/05/28 04:16:00;;;;;;;13.15;7.30;;;;;;;11.42;75.57;97341.54;1770933;78;25746;-84
2021/05/28 04:18:28;;;;;;;10.75;7.37;;;;;;;11.42;75.58;97333.44;1794703;79;25689;-83
2021/05/28 04:20:55;;;;;;;11.55;7.00;;;;;;;11.43;75.58;97337.80;1791751;79;28121;-83
2021/05/28 04:23:22;;;;;;;11.08;6.95;;;;;;;11.44;75.50;97335.40;1778351;79;25701;-83
2021/05/28 04:25:50;;;;;;;11.83;7.28;;;;;;;11.44;75.49;97344.34;1793840;78;25652;-83
2021/05/28 04:28:17;;;;;;;10.65;7.67;;;;;;;11.45;75.44;97341.11;1788858;79;26458;-83
2021/05/28 04:30:44;;;;;;;9.65;7.50;;;;;;;11.46;75.49;97345.48;1790972;79;25726;-82
2021/05/28 04:33:12;;;;;;;9.78;6.60;;;;;;;11.43;75.52;97345.91;1790923;79;28243;-83
2021/05/28 04:35:38;;;;;;;11.12;7.50;;;;;;;11.41;75.52;97342.06;1790629;79;26395;-83
2021/05/28 04:38:05;;;;;;;9.13;7.30;;;;;;;11.41;75.53;97343.41;1790998;79;25661;-84
2021/05/28 04:40:32;;;;;;;7.75;6.78;;;;;;;11.41;75.55;97343.94;1792183;78;25667;-83
2021/05/28 04:42:59;;;;;;;10.23;6.78;;;;;;;11.42;75.50;97340.19;1792362;78;25519;-82
2021/05/28 04:45:26;;;;;;;12.40;7.42;;;;;;;11.44;75.49;97342.16;1792216;79;27540;-83
2021/05/28 04:47:54;;;;;;;11.45;7.83;;;;;;;11.45;75.48;97347.87;1761360;79;25940;-82
2021/05/28 04:50:22;;;;;;;9.60;8.08;;;;;;;11.47;75.53;97343.08;1761989;79;25658;-85
2021/05/28 04:52:48;;;;;;;11.20;7.67;;;;;;;11.48;75.55;97346.05;1771537;79;25865;-84
2021/05/28 04:55:15;;;;;;;11.73;7.45;;;;;;;11.47;75.55;97349.84;1794627;79;25693;-81
2021/05/28 04:57:42;;;;;;;10.28;7.85;;;;;;;11.47;75.52;97353.34;1787636;79;27919;-82
2021/05/28 05:00:10;;;;;;;12.82;8.18;;;;;;;11.51;75.41;97359.14;1768015;79;25750;-82
2021/05/28 05:02:36;;;;;;;16.67;8.60;;;;;;;11.53;75.36;97355.19;1794575;79;26159;-84
2021/05/28 05:05:04;;;;;;;14.03;9.38;;;;;;;11.54;75.27;97356.02;1787001;79;25817;-84
2021/05/28 05:07:31;;;;;;;13.22;9.05;;;;;;;11.42;75.08;97354.53;1759812;79;26234;-84
2021/05/28 05:09:58;;;;;;;11.70;9.13;;;;;;;11.35;75.15;97351.58;1762926;79;28522;-83
2021/05/28 05:12:24;;;;;;;11.08;8.53;;;;;;;11.35;75.32;97351.58;1756609;79;25735;-84
2021/05/28 05:14:51;;;;;;;12.00;9.18;;;;;;;11.40;75.40;97357.97;1770689;79;25659;-82
2021/05/28 05:17:17;;;;;;;13.98;9.88;;;;;;;11.45;75.47;97360.03;1794373;78;25819;-82
2021/05/28 05:19:44;;;;;;;14.43;9.60;;;;;;;11.43;75.50;97357.55;1791065;79;25495;-82
2021/05/28 05:22:11;;;;;;;14.15;9.85;;;;;;;11.45;75.59;97358.68;1791070;79;27132;-82
2021/05/28 05:24:37;;;;;;;17.32;11.18;;;;;;;11.48;75.63;97355.00;1790868;79;25682;-82
2021/05/28 05:27:05;;;;;;;19.12;11.63;;;;;;;11.50;75.63;97354.78;1790915;79;25637;-82
2021/05/28 05:29:31;;;;;;;13.25;11.30;;;;;;;11.55;75.66;97353.09;1790592;79;26203;-82
2021/05/28 05:31:58;;;;;;;18.10;12.82;;;;;;;11.60;75.63;97357.83;1769221;79;25702;-82
2021/05/28 05:34:25;;;;;;;16.73;10.03;;;;;;;11.64;75.65;97359.05;1777010;79;28170;-84
2021/05/28 05:36:52;;;;;;;13.98;9.75;;;;;;;11.57;75.05;97359.64;1764403;79;25624;-82
2021/05/28 05:39:18;;;;;;;14.03;9.03;;;;;;;11.57;74.83;97363.70;1800418;79;25691;-81
2021/05/28 05:41:45;;;;;;;14.85;8.70;;;;;;;11.64;74.65;97363.11;1788401;79;26669;-82
2021/05/28 05:44:11;;;;;;;9.55;7.60;;;;;;;11.70;74.49;97366.31;1778795;79;25621;-82
2021/05/28 05:46:39;;;;;;;10.78;7.22;;;;;;;11.78;74.22;97372.81;1792159;79;27804;-82
2021/05/28 05:49:06;;;;;;;10.18;6.03;;;;;;;11.84;73.82;97367.87;1763839;79;25704;-82
2021/05/28 05:51:32;;;;;;;7.70;5.70;;;;;;;11.89;73.40;97368.05;1776851;78;25732;-82
2021/05/28 05:53:59;;;;;;;6.53;4.83;;;;;;;11.96;73.17;97368.50;1786980;78;25659;-82
2021/05/28 05:56:26;;;;;;;7.33;4.70;;;;;;;11.96;72.58;97369.86;1788038;79;25539;-82
2021/05/28 05:58:52;;;;;;;5.97;5.10;;;;;;;11.99;72.37;97368.07;1767637;79;28207;-82
2021/05/28 06:01:19;;;;;;;9.73;4.53;;;;;;;12.04;72.05;97365.55;1761100;79;25643;-82
2021/05/28 06:03:46;;;;;;;5.55;4.15;;;;;;;12.09;72.02;97372.45;1761188;79;25637;-83
2021/05/28 06:06:13;;;;;;;9.75;5.05;;;;;;;12.16;71.76;97365.13;1780257;79;25724;-81
2021/05/28 06:08:39;;;;;;;5.78;4.28;;;;;;;12.22;71.53;97373.69;1761395;79;25635;-80
2021/05/28 06:11:06;;;;;;;8.00;4.35;;;;;;;12.27;71.21;97369.80;1769127;79;27348;-81
2021/05/28 06:13:32;;;;;;;5.03;3.77;;;;;;;12.34;70.95;97372.42;1782769;79;25813;-81
2021/05/28 06:15:59;;;;;;;5.62;3.95;;;;;;;12.38;70.71;97374.48;1782480;79;25630;-81
2021/05/28 06:18:26;;;;;;;4.97;3.55;;;;;;;12.42;70.36;97381.11;1787959;79;26632;-82
2021/05/28 06:20:52;;;;;;;5.08;3.45;;;;;;;12.46;70.02;97387.72;1799140;79;25769;-82
2021/05/28 06:23:19;;;;;;;6.80;3.72;;;;;;;12.50;69.78;97392.17;1764483;79;28008;-81
2021/05/28 06:25:47;;;;;;;7.17;3.55;;;;;;;12.53;69.59;97389.84;1780617;79;25690;-81
2021/05/28 06:28:15;;;;;;;4.42;2.98;;;;;;;12.60;69.39;97392.47;1793024;78;25724;-81
2021/05/28 06:30:42;;;;;;;7.55;3.50;;;;;;;12.67;69.15;97389.19;1780420;79;25840;-81
2021/05/28 06:33:09;;;;;;;4.15;2.72;;;;;;;12.71;68.87;97385.48;1795873;78;25574;-81
2021/05/28 06:35:37;;;;;;;4.95;3.02;;;;;;;12.75;68.67;97382.63;1779853;79;27553;-82
2021/05/28 06:38:04;;;;;;;3.50;2.42;;;;;;;12.76;68.26;97381.58;1771745;79;25674;-82
2021/05/28 06:40:32;;;;;;;3.67;2.77;;;;;;;12.80;68.00;97383.59;1770934;79;25659;-84
2021/05/28 06:42:59;;;;;;;4.12;2.40;;;;;;;12.89;68.10;97380.08;1794274;79;25775;-83
2021/05/28 06:45:25;;;;;;;3.85;2.70;;;;;;;12.99;68.46;97379.02;1777420;79;25690;-81
2021/05/28 06:47:52;;;;;;;3.30;2.47;;;;;;;13.12;68.14;97378.02;1781708;79;27333;-82
2021/05/28 06:50:19;;;;;;;4.47;2.80;;;;;;;13.22;67.55;97381.88;1769597;79;25657;-80
2021/05/28 06:52:47;;;;;;;5.25;2.50;;;;;;;13.35;67.62;97386.30;1769049;79;25627;-81
2021/05/28 06:55:14;;;;;;;4.53;2.85;;;;;;;13.47;67.18;97382.27;1761017;79;25638;-80
2021/05/28 06:57:41;;;;;;;4.33;2.67;;;;;;;13.55;66.37;97384.65;1791332;79;25616;-82
2021/05/28 07:00:10;;;;;;;3.30;2.50;;;;;;;13.54;66.21;97388.41;1794391;79;27335;-84
2021/05/28 07:02:37;;;;;;;4.20;2.55;;;;;;;13.52;65.92;97385.13;1766379;79;25690;-84
2021/05/28 07:05:05;;;;;;;4.95;2.90;;;;;;;13.52;65.92;97391.38;1785677;79;25738;-83
2021/05/28 07:07:32;;;;;;;4.20;2.77;;;;;;;13.53;65.88;97389.47;1769675;79;25786;-81
2021/05/28 07:09:59;;;;;;;5.72;3.15;;;;;;;13.48;65.86;97393.42;1759231;80;25560;-81
2021/05/28 07:12:26;;;;;;;4.97;3.30;;;;;;;13.38;65.94;97393.14;1777645;79;27441;-83
2021/05/28 07:14:53;;;;;;;4.35;2.60;;;;;;;13.41;66.13;97396.73;1756836;79;25782;-83
2021/05/28 07:17:20;;;;;;;3.98;2.75;;;;;;;13.42;65.96;97392.44;1760063;79;25675;-84
2021/05/28 07:19:47;;;;;;;3.65;2.50;;;;;;;13.54;66.24;97395.20;1761239;79;25628;-81
2021/05/28 07:22:13;;;;;;;6.90;3.33;;;;;;;13.68;65.47;97388.00;1761390;79;25228;-84
2021/05/28 07:24:40;;;;;;;9.15;2.77;;;;;;;13.83;64.98;97390.29;1774983;79;28109;-82
2021/05/28 07:27:06;;;;;;;5.03;2.80;;;;;;;13.87;65.11;97390.12;1776165;79;25712;-83
2021/05/28 07:29:33;;;;;;;4.45;2.80;;;;;;;13.91;65.02;97395.37;1764425;79;25606;-83
2021/05/28 07:31:59;;;;;;;3.98;2.65;;;;;;;14.03;64.77;97394.86;1764555;79;25913;-81
2021/05/28 07:34:26;;;;;;;4.17;2.40;;;;;;;14.13;64.71;97389.41;1780545;79;25610;-83
2021/05/28 07:36:53;;;;;;;6.37;2.50;;;;;;;14.21;64.68;97391.77;1795246;79;28077;-84
2021/05/28 07:39:20;;;;;;;5.40;2.17;;;;;;;14.29;64.17;97388.70;1802840;79;25719;-84
2021/05/28 07:41:47;;;;;;;5.58;2.40;;;;;;;14.35;63.91;97384.53;1778405;79;25602;-80
2021/05/28 07:44:13;;;;;;;6.28;2.47;;;;;;;14.44;63.16;97387.73;1774272;79;25970;-81
2021/05/28 07:46:43;;;;;;;5.10;2.08;;;;;;;14.55;62.86;97389.63;1789766;79;25585;-82
2021/05/28 07:49:10;;;;;;;3.27;2.35;;;;;;;14.70;62.54;97385.91;1778726;79;27320;-83
2021/05/28 07:51:37;;;;;;;3.17;2.00;;;;;;;14.78;62.56;97383.34;1785225;79;25606;-82
2021/05/28 07:54:05;;;;;;;5.95;2.55;;;;;;;14.85;62.28;97389.49;1800585;79;25645;-82
2021/05/28 07:56:34;;;;;;;3.00;2.45;;;;;;;14.99;62.45;97383.23;1777903;78;25679;-82
2021/05/28 07:59:00;;;;;;;4.75;2.72;;;;;;;15.09;62.01;97390.27;1788964;78;25567;-81
2021/05/28 08:01:31;;;;;;;4.35;2.42;;;;;;;15.08;61.64;97378.56;1777476;79;27310;-82
2021/05/28 08:03:58;;;;;;;4.12;2.80;;;;;;;15.28;61.60;97374.59;1774597;78;25622;-81
2021/05/28 08:06:26;;;;;;;5.20;2.70;;;;;;;15.55;61.80;97375.70;1798184;79;26186;-81
2021/05/28 08:08:54;;;;;;;6.37;3.35;;;;;;;15.71;61.33;97378.16;1770099;79;25691;-82
2021/05/28 08:11:21;;;;;;;3.10;2.58;;;;;;;15.88;60.67;97378.19;1773590;79;25694;-84
2021/05/28 08:13:49;;;;;;;4.60;2.67;;;;;;;15.94;60.20;97377.23;1777546;79;27327;-84
2021/05/28 08:16:16;;;;;;;8.45;3.20;;;;;;;15.97;60.31;97378.90;1763537;79;25673;-85
2021/05/28 08:18:43;;;;;;;3.52;2.55;;;;;;;15.91;59.92;97373.63;1775317;79;25665;-85
2021/05/28 08:21:11;;;;;;;2.67;2.05;;;;;;;15.77;59.64;97381.27;1794010;78;26389;-80
2021/05/28 08:23:39;;;;;;;3.37;2.20;;;;;;;15.69;59.09;97381.68;1804029;78;25591;-82
2021/05/28 08:26:06;;;;;;;4.33;2.60;;;;;;;15.64;59.14;97382.94;1806442;78;27417;-83
2021/05/28 08:28:35;;;;;;;4.67;2.42;;;;;;;15.48;59.10;97385.33;1798089;78;25550;-80
2021/05/28 08:31:06;;;;;;;3.00;1.95;;;;;;;15.41;58.81;97383.30;1795518;79;26225;-82
2021/05/28 08:33:34;;;;;;;2.12;1.92;;;;;;;15.36;58.47;97377.75;1794269;79;26183;-81
2021/05/28 08:36:01;;;;;;;3.12;1.60;;;;;;;15.31;58.34;97379.03;1777699;79;25360;-83
2021/05/28 08:38:28;;;;;;;3.62;1.82;;;;;;;15.32;58.24;97376.60;1775429;79;27471;-81
2021/05/28 08:40:54;;;;;;;4.05;2.20;;;;;;;15.37;58.02;97383.48;1772591;79;25685;-83
2021/05/28 08:43:21;;;;;;;2.50;2.25;;;;;;;15.43;58.07;97387.14;1789254;78;25719;-81
2021/05/28 08:45:49;;;;;;;2.40;1.70;;;;;;;15.37;57.83;97385.38;1787034;79;26403;-84
2021/05/28 08:48:18;;;;;;;3.00;2.15;;;;;;;15.41;57.78;97390.62;1792828;78;25569;-82
2021/05/28 08:50:48;;;;;;;2.90;2.05;;;;;;;15.38;57.83;97389.75;1789653;79;27341;-81
2021/05/28 08:53:17;;;;;;;3.35;2.08;;;;;;;15.47;57.68;97384.20;1790956;79;25640;-82
2021/05/28 08:55:45;;;;;;;2.65;1.90;;;;;;;15.44;57.79;97387.44;1770191;79;25644;-84
2021/05/28 08:58:15;;;;;;;2.83;2.05;;;;;;;15.54;57.36;97386.80;1771486;79;25544;-84
2021/05/28 09:00:45;;;;;;;4.53;2.30;;;;;;;15.85;57.31;97383.58;1780167;79;25770;-85
2021/05/28 09:03:27;;;;;;;2.10;1.95;;;;;;;16.10;57.08;97389.47;1799236;79;27381;-84
2021/05/28 09:05:59;;;;;;;2.58;1.98;;;;;;;16.55;56.81;97386.64;1786861;79;25197;-86
2021/05/28 09:08:36;;;;;;;5.37;2.80;;;;;;;16.67;55.96;97362.58;1762050;79;25651;-86
2021/05/28 09:11:13;;;;;;;2.70;2.10;;;;;;;16.67;55.96;97362.58;1765876;79;26421;-86
2021/05/28 09:13:54;;;;;;;2.40;2.15;;;;;;;16.80;55.88;97384.85;1776949;79;25689;-86
2021/05/28 09:16:27;;;;;;;2.40;2.10;;;;;;;16.79;55.79;97385.92;1761524;79;27422;-86
2021/05/28 09:18:56;;;;;;;2.80;2.05;;;;;;;16.68;55.31;97385.49;1775864;79;25680;-90
2021/05/28 09:21:35;;;;;;;2.40;2.15;;;;;;;16.65;55.51;97387.92;1722543;82;25667;-86
2021/05/28 09:24:06;;;;;;;2.45;1.95;;;;;;;16.80;55.54;97388.94;1711706;82;25765;-84
2021/05/28 09:26:35;;;;;;;2.77;2.55;;;;;;;16.95;55.32;97382.05;1789506;79;25660;-85
2021/05/28 09:29:05;;;;;;;3.87;2.25;;;;;;;16.93;54.87;97382.30;1775746;79;27201;-84
2021/05/28 09:31:33;;;;;;;3.00;2.17;;;;;;;16.75;54.85;97388.89;1764663;79;25656;-86
2021/05/28 09:34:00;;;;;;;2.60;2.40;;;;;;;16.70;54.88;97383.89;1779447;79;25674;-84
2021/05/28 09:36:35;;;;;;;3.58;2.27;;;;;;;16.59;54.98;97371.98;1769756;79;25686;-86
2021/05/28 09:39:11;;;;;;;2.87;2.17;;;;;;;16.65;54.58;97384.66;1780565;78;26513;-84
2021/05/28 09:41:52;;;;;;;3.83;2.50;;;;;;;16.68;54.26;97384.67;1794042;79;27310;-84
2021/05/28 09:44:31;;;;;;;3.33;2.40;;;;;;;16.69;54.02;97386.32;1780384;78;25884;-84
2021/05/28 09:47:13;;;;;;;2.47;2.25;;;;;;;16.41;54.26;97394.06;1769983;80;25627;-83
2021/05/28 09:49:46;;;;;;;5.00;2.70;;;;;;;16.16;54.63;97396.66;1769876;80;26237;-85
2021/05/28 09:52:29;;;;;;;2.60;2.15;;;;;;;16.25;54.51;97392.16;1771468;80;25590;-83
2021/05/28 09:55:01;;;;;;;;;;;;;;;16.31;54.53;97392.52;1788549;79;28064;-86
2021/05/28 09:57:37;;;;;;;4.70;2.42;;;;;;;16.31;54.23;97384.34;1788027;79;25581;-84
2021/05/28 10:00:12;;;;;;;2.80;2.17;;;;;;;16.32;54.04;97383.27;1773763;79;26214;-83
2021/05/28 10:02:45;;;;;;;3.70;2.22;;;;;;;16.40;53.89;97372.80;1789877;79;26285;-84
2021/05/28 10:05:27;;;;;;;2.75;2.37;;;;;;;16.46;53.90;97368.24;1760864;79;25714;-82
2021/05/28 10:07:54;;;;;;;2.98;2.60;;;;;;;16.60;54.39;97372.81;1773430;79;27419;-82
2021/05/28 10:10:21;;;;;;;3.08;1.92;;;;;;;17.14;53.86;97365.14;1772651;79;25581;-85
2021/05/28 10:12:48;;;;;;;2.15;1.80;;;;;;;17.33;53.46;97360.17;1785281;78;25676;-83
2021/05/28 10:15:15;;;;;;;1.95;1.52;;;;;;;17.32;53.00;97364.52;1774902;79;26474;-81
2021/05/28 10:17:42;;;;;;;3.50;1.72;;;;;;;17.28;52.85;97361.47;1784397;79;25670;-85
2021/05/28 10:20:10;;;;;;;2.20;1.80;;;;;;;17.38;52.37;97358.05;1786450;79;27410;-85
2021/05/28 10:22:36;;;;;;;1.98;1.87;;;;;;;17.49;52.03;97360.64;1769309;79;25514;-84
2021/05/28 10:25:05;;;;;;;5.35;2.25;;;;;;;17.61;51.80;97359.95;1770687;78;25665;-84
2021/05/28 10:27:33;;;;;;;4.45;2.10;;;;;;;17.78;51.91;97359.03;1770338;79;26443;-83
2021/05/28 10:30:00;;;;;;;2.40;1.80;;;;;;;17.81;51.93;97358.52;1768518;78;25653;-91
2021/05/28 10:32:26;;;;;;;2.37;2.17;;;;;;;17.87;51.48;97360.23;1795468;78;27319;-85
2021/05/28 10:35:14;;;;;;;2.98;2.10;;;;;;;17.92;50.92;97349.34;1787688;78;25938;-84
2021/05/28 10:37:43;;;;;;;2.45;2.08;;;;;;;17.95;50.77;97357.02;1763759;79;26114;-86
2021/05/28 10:40:29;;;;;;;3.15;2.12;;;;;;;17.91;50.85;97350.42;1761109;79;25878;-84
2021/05/28 10:43:06;;;;;;;2.35;1.90;;;;;;;17.90;50.73;97349.59;1763561;79;26625;-83
2021/05/28 10:46:03;;;;;;;2.67;2.10;;;;;;;17.74;50.78;97350.55;1781200;78;27442;-84
2021/05/28 10:48:45;;;;;;;3.92;2.00;;;;;;;17.63;50.41;97348.23;1787638;79;25566;-84
2021/05/28 10:51:31;;;;;;;2.70;2.20;;;;;;;17.45;50.39;97351.30;1803832;79;26416;-85
2021/05/28 10:54:03;;;;;;;2.83;2.40;;;;;;;17.19;50.50;97353.45;1785306;79;26305;-82
2021/05/28 10:56:43;;;;;;;3.50;2.40;;;;;;;16.99;51.25;97349.13;1781773;79;25571;-85
2021/05/28 10:59:19;;;;;;;2.40;2.12;;;;;;;17.03;51.50;97338.80;1785580;79;27953;-83
2021/05/28 11:01:52;;;;;;;2.70;2.45;;;;;;;17.17;51.09;97335.16;1761208;79;25689;-85
2021/05/28 11:04:32;;;;;;;2.62;2.20;;;;;;;17.32;50.75;97342.69;1761966;79;25698;-89
2021/05/28 11:07:07;;;;;;;3.22;2.58;;;;;;;17.41;50.52;97342.52;1786690;79;25836;-83
2021/05/28 11:09:47;;;;;;;3.92;2.60;;;;;;;17.39;50.40;97344.70;1788942;78;25231;-85
2021/05/28 11:12:26;;;;;;;2.47;2.27;;;;;;;17.31;50.38;97350.05;1770765;79;28095;-86
2021/05/28 11:15:06;;;;;;;2.98;2.25;;;;;;;17.22;50.32;97352.95;1772380;79;26380;-86
2021/05/28 11:17:53;;;;;;;3.70;2.80;;;;;;;16.88;50.14;97358.54;1782803;78;25808;-86
2021/05/28 11:20:33;;;;;;;4.35;2.60;;;;;;;16.46;50.73;97360.07;1793846;78;26174;-84
2021/05/28 11:23:08;;;;;;;4.20;2.70;;;;;;;16.26;51.37;97361.95;1778309;79;25651;-88
2021/05/28 11:25:46;;;;;;;3.55;2.80;;;;;;;15.98;51.66;97368.84;1792647;79;26808;-87
2021/05/28 11:28:13;;;;;;;4.47;3.02;;;;;;;15.80;52.19;97368.01;1792896;79;25594;-85
2021/05/28 11:30:50;;;;;;;2.98;2.67;;;;;;;15.70;52.66;97372.41;1785820;79;26347;-84
2021/05/28 11:33:39;;;;;;;4.72;2.87;;;;;;;15.67;52.87;97371.57;1796766;79;25692;-90
2021/05/28 11:36:33;;;;;;;4.10;2.60;;;;;;;15.79;52.96;97369.61;1771485;79;25653;-85
2021/05/28 11:39:01;;;;;;;3.90;2.22;;;;;;;15.92;52.35;97363.86;1771367;79;27975;-89
2021/05/28 11:41:57;;;;;;;3.62;2.45;;;;;;;16.11;52.39;97366.62;1765210;79;25981;-84